sensor_id;sensor_type;location;lat;lon;timestamp;pressure;altitude;pressure_sealevel;temperature;humidity
43838;BME280;65998;46.256;7.534;2023-07-13T00:02:12;87280.88;;;15.18;100.00
43838;BME280;65998;46.256;7.534;2023-07-13T00:04:38;87293.13;;;15.27;100.00
43838;BME280;65998;46.256;7.534;2023-07-13T00:07:04;87304.75;;;15.33;100.00
43838;BME280;65998;46.256;7.534;2023-07-13T00:09:30;87307.06;;;15.23;100.00
43838;BME280;65998;46.256;7.534;2023-07-13T00:11:57;87280.69;;;14.95;100.00
43838;BME280;65998;46.256;7.534;2023-07-13T00:14:25;87284.31;;;14.50;100.00
43838;BME280;65998;46.256;7.534;2023-07-13T00:16:51;87301.50;;;14.57;100.00
43838;BME280;65998;46.256;7.534;2023-07-13T00:19:17;87296.28;;;14.76;100.00
43838;BME280;65998;46.256;7.534;2023-07-13T00:21:43;87297.31;;;14.93;100.00
43838;BME280;65998;46.256;7.534;2023-07-13T00:24:11;87302.72;;;14.99;100.00
43838;BME280;65998;46.256;7.534;2023-07-13T00:26:38;87306.13;;;15.01;100.00
43838;BME280;65998;46.256;7.534;2023-07-13T00:29:04;87299.19;;;15.02;100.00
43838;BME280;65998;46.256;7.534;2023-07-13T00:31:30;87299.28;;;14.98;100.00
43838;BME280;65998;46.256;7.534;2023-07-13T00:33:56;87298.72;;;14.92;100.00
43838;BME280;65998;46.256;7.534;2023-07-13T00:36:22;87302.44;;;14.80;100.00
43838;BME280;65998;46.256;7.534;2023-07-13T00:38:48;87297.81;;;14.68;100.00
43838;BME280;65998;46.256;7.534;2023-07-13T00:41:14;87305.72;;;14.52;100.00
43838;BME280;65998;46.256;7.534;2023-07-13T00:43:40;87310.47;;;14.57;100.00
43838;BME280;65998;46.256;7.534;2023-07-13T00:46:20;87313.38;;;14.49;100.00
43838;BME280;65998;46.256;7.534;2023-07-13T00:48:47;87308.28;;;14.64;100.00
43838;BME280;65998;46.256;7.534;2023-07-13T00:51:16;87299.41;;;14.57;100.00
43838;BME280;65998;46.256;7.534;2023-07-13T00:53:43;87315.31;;;14.57;100.00
43838;BME280;65998;46.256;7.534;2023-07-13T00:56:10;87303.94;;;14.73;100.00
43838;BME280;65998;46.256;7.534;2023-07-13T00:58:36;87298.66;;;14.61;100.00
43838;BME280;65998;46.256;7.534;2023-07-13T01:01:02;87290.88;;;14.30;100.00
43838;BME280;65998;46.256;7.534;2023-07-13T01:03:29;87294.09;;;14.45;100.00
43838;BME280;65998;46.256;7.534;2023-07-13T01:05:55;87295.34;;;14.52;100.00
43838;BME280;65998;46.256;7.534;2023-07-13T01:08:21;87303.72;;;14.48;100.00
43838;BME280;65998;46.256;7.534;2023-07-13T01:10:55;87305.06;;;14.49;100.00
43838;BME280;65998;46.256;7.534;2023-07-13T01:13:21;87301.44;;;14.61;100.00
43838;BME280;65998;46.256;7.534;2023-07-13T01:15:48;87300.50;;;14.73;100.00
43838;BME280;65998;46.256;7.534;2023-07-13T01:18:23;87291.59;;;14.68;100.00
43838;BME280;65998;46.256;7.534;2023-07-13T01:20:54;87283.81;;;14.39;100.00
43838;BME280;65998;46.256;7.534;2023-07-13T01:23:22;87285.41;;;14.28;100.00
43838;BME280;65998;46.256;7.534;2023-07-13T01:25:48;87285.13;;;14.45;100.00
43838;BME280;65998;46.256;7.534;2023-07-13T01:28:14;87285.22;;;14.38;100.00
43838;BME280;65998;46.256;7.534;2023-07-13T01:30:40;87289.69;;;14.60;100.00
43838;BME280;65998;46.256;7.534;2023-07-13T01:33:07;87289.53;;;14.68;100.00
43838;BME280;65998;46.256;7.534;2023-07-13T01:35:33;87297.84;;;14.66;100.00
43838;BME280;65998;46.256;7.534;2023-07-13T01:37:59;87297.81;;;14.68;100.00
43838;BME280;65998;46.256;7.534;2023-07-13T01:40:25;87291.69;;;14.64;100.00
43838;BME280;65998;46.256;7.534;2023-07-13T01:42:51;87296.28;;;14.76;100.00
43838;BME280;65998;46.256;7.534;2023-07-13T01:45:16;87290.84;;;14.72;100.00
43838;BME280;65998;46.256;7.534;2023-07-13T01:47:42;87289.41;;;14.75;100.00
43838;BME280;65998;46.256;7.534;2023-07-13T01:50:08;87288.03;;;14.74;100.00
43838;BME280;65998;46.256;7.534;2023-07-13T01:52:35;87290.19;;;14.69;100.00
43838;BME280;65998;46.256;7.534;2023-07-13T01:55:00;87283.22;;;14.72;100.00
43838;BME280;65998;46.256;7.534;2023-07-13T01:57:26;87282.34;;;14.82;100.00
43838;BME280;65998;46.256;7.534;2023-07-13T01:59:52;87279.66;;;14.78;100.00
43838;BME280;65998;46.256;7.534;2023-07-13T02:02:18;87280.38;;;14.76;100.00
43838;BME280;65998;46.256;7.534;2023-07-13T02:04:43;87279.50;;;14.86;100.00
43838;BME280;65998;46.256;7.534;2023-07-13T02:07:09;87278.72;;;14.89;100.00
43838;BME280;65998;46.256;7.534;2023-07-13T02:09:35;87272.56;;;14.87;100.00
43838;BME280;65998;46.256;7.534;2023-07-13T02:12:01;87277.41;;;14.86;100.00
43838;BME280;65998;46.256;7.534;2023-07-13T02:14:27;87267.91;;;14.77;100.00
43838;BME280;65998;46.256;7.534;2023-07-13T02:16:53;87270.81;;;14.71;100.00
43838;BME280;65998;46.256;7.534;2023-07-13T02:19:18;87275.09;;;14.64;100.00
43838;BME280;65998;46.256;7.534;2023-07-13T02:21:44;87287.63;;;14.59;100.00
43838;BME280;65998;46.256;7.534;2023-07-13T02:24:10;87277.97;;;14.58;100.00
43838;BME280;65998;46.256;7.534;2023-07-13T02:26:36;87273.81;;;14.59;100.00
43838;BME280;65998;46.256;7.534;2023-07-13T02:29:02;87287.09;;;14.50;100.00
43838;BME280;65998;46.256;7.534;2023-07-13T02:31:28;87282.72;;;14.63;100.00
43838;BME280;65998;46.256;7.534;2023-07-13T02:33:53;87277.13;;;14.65;100.00
43838;BME280;65998;46.256;7.534;2023-07-13T02:36:19;87280.66;;;14.62;100.00
43838;BME280;65998;46.256;7.534;2023-07-13T02:38:45;87274.44;;;14.61;100.00
43838;BME280;65998;46.256;7.534;2023-07-13T02:41:11;87270.75;;;14.73;100.00
43838;BME280;65998;46.256;7.534;2023-07-13T02:43:37;87275.59;;;14.73;100.00
43838;BME280;65998;46.256;7.534;2023-07-13T02:46:03;87264.41;;;14.79;100.00
43838;BME280;65998;46.256;7.534;2023-07-13T02:48:29;87264.38;;;14.81;100.00
43838;BME280;65998;46.256;7.534;2023-07-13T02:50:55;87263.72;;;14.78;100.00
43838;BME280;65998;46.256;7.534;2023-07-13T02:53:21;87271.28;;;14.82;100.00
43838;BME280;65998;46.256;7.534;2023-07-13T02:55:47;87260.88;;;14.82;100.00
43838;BME280;65998;46.256;7.534;2023-07-13T02:58:13;87265.75;;;14.82;100.00
43838;BME280;65998;46.256;7.534;2023-07-13T03:00:39;87265.31;;;14.69;100.00
43838;BME280;65998;46.256;7.534;2023-07-13T03:03:05;87268.06;;;14.69;100.00
43838;BME280;65998;46.256;7.534;2023-07-13T03:05:31;87262.41;;;14.75;100.00
43838;BME280;65998;46.256;7.534;2023-07-13T03:07:56;87259.41;;;14.87;100.00
43838;BME280;65998;46.256;7.534;2023-07-13T03:10:22;87264.81;;;14.93;100.00
43838;BME280;65998;46.256;7.534;2023-07-13T03:12:48;87259.81;;;15.00;100.00
43838;BME280;65998;46.256;7.534;2023-07-13T03:15:14;87262.53;;;15.02;100.00
43838;BME280;65998;46.256;7.534;2023-07-13T03:17:40;87262.03;;;14.93;100.00
43838;BME280;65998;46.256;7.534;2023-07-13T03:20:06;87259.41;;;14.87;100.00
43838;BME280;65998;46.256;7.534;2023-07-13T03:22:32;87252.84;;;14.70;100.00
43838;BME280;65998;46.256;7.534;2023-07-13T03:24:58;87254.97;;;14.67;100.00
43838;BME280;65998;46.256;7.534;2023-07-13T03:27:24;87257.47;;;14.45;100.00
43838;BME280;65998;46.256;7.534;2023-07-13T03:29:50;87259.84;;;14.28;100.00
43838;BME280;65998;46.256;7.534;2023-07-13T03:32:15;87259.72;;;13.97;100.00
43838;BME280;65998;46.256;7.534;2023-07-13T03:34:41;87261.88;;;13.92;100.00
43838;BME280;65998;46.256;7.534;2023-07-13T03:37:07;87261.31;;;13.86;100.00
43838;BME280;65998;46.256;7.534;2023-07-13T03:39:33;87255.78;;;13.86;100.00
43838;BME280;65998;46.256;7.534;2023-07-13T03:41:58;87258.97;;;14.00;100.00
43838;BME280;65998;46.256;7.534;2023-07-13T03:44:24;87259.53;;;14.07;100.00
43838;BME280;65998;46.256;7.534;2023-07-13T03:46:50;87259.53;;;14.07;100.00
43838;BME280;65998;46.256;7.534;2023-07-13T03:49:16;87259.66;;;14.01;100.00
43838;BME280;65998;46.256;7.534;2023-07-13T03:51:42;87257.72;;;13.93;100.00
43838;BME280;65998;46.256;7.534;2023-07-13T03:54:08;87249.25;;;14.03;100.00
43838;BME280;65998;46.256;7.534;2023-07-13T03:56:33;87256.69;;;14.11;100.00
43838;BME280;65998;46.256;7.534;2023-07-13T03:58:59;87258.72;;;14.15;100.00
43838;BME280;65998;46.256;7.534;2023-07-13T04:01:25;87255.06;;;14.24;100.00
43838;BME280;65998;46.256;7.534;2023-07-13T04:03:52;87260.53;;;14.28;100.00
43838;BME280;65998;46.256;7.534;2023-07-13T04:06:23;87260.97;;;14.43;100.00
43838;BME280;65998;46.256;7.534;2023-07-13T04:08:54;87270.56;;;14.46;100.00
43838;BME280;65998;46.256;7.534;2023-07-13T04:11:23;87278.03;;;14.54;100.00
43838;BME280;65998;46.256;7.534;2023-07-13T04:13:50;87280.78;;;14.54;100.00
43838;BME280;65998;46.256;7.534;2023-07-13T04:16:17;87279.34;;;14.59;100.00
43838;BME280;65998;46.256;7.534;2023-07-13T04:18:43;87276.44;;;14.65;100.00
43838;BME280;65998;46.256;7.534;2023-07-13T04:21:09;87281.88;;;14.71;100.00
43838;BME280;65998;46.256;7.534;2023-07-13T04:23:37;87275.69;;;14.68;100.00
43838;BME280;65998;46.256;7.534;2023-07-13T04:26:03;87278.38;;;14.73;100.00
43838;BME280;65998;46.256;7.534;2023-07-13T04:28:30;87276.88;;;14.78;100.00
43838;BME280;65998;46.256;7.534;2023-07-13T04:30:56;87278.22;;;14.81;100.00
43838;BME280;65998;46.256;7.534;2023-07-13T04:33:22;87277.59;;;14.76;100.00
43838;BME280;65998;46.256;7.534;2023-07-13T04:35:52;87279.78;;;14.72;100.00
43838;BME280;65998;46.256;7.534;2023-07-13T04:38:19;87281.97;;;14.65;100.00
43838;BME280;65998;46.256;7.534;2023-07-13T04:40:45;87278.41;;;14.71;100.00
43838;BME280;65998;46.256;7.534;2023-07-13T04:43:11;87284.50;;;14.77;100.00
43838;BME280;65998;46.256;7.534;2023-07-13T04:45:37;87287.56;;;14.63;100.00
43838;BME280;65998;46.256;7.534;2023-07-13T04:48:04;87283.59;;;14.52;100.00
43838;BME280;65998;46.256;7.534;2023-07-13T04:50:30;87291.81;;;14.56;100.00
43838;BME280;65998;46.256;7.534;2023-07-13T04:52:56;87283.50;;;14.58;100.00
43838;BME280;65998;46.256;7.534;2023-07-13T04:55:22;87287.72;;;14.53;100.00
43838;BME280;65998;46.256;7.534;2023-07-13T04:57:48;87300.09;;;14.58;100.00
43838;BME280;65998;46.256;7.534;2023-07-13T05:00:14;87295.81;;;14.65;100.00
43838;BME280;65998;46.256;7.534;2023-07-13T05:02:44;87290.97;;;14.65;100.00
43838;BME280;65998;46.256;7.534;2023-07-13T05:05:10;87291.75;;;14.60;100.00
43838;BME280;65998;46.256;7.534;2023-07-13T05:07:36;87296.41;;;14.69;100.00
43838;BME280;65998;46.256;7.534;2023-07-13T05:10:03;87290.13;;;14.73;100.00
43838;BME280;65998;46.256;7.534;2023-07-13T05:12:30;87286.88;;;14.62;100.00
43838;BME280;65998;46.256;7.534;2023-07-13T05:14:56;87277.94;;;14.60;100.00
43838;BME280;65998;46.256;7.534;2023-07-13T05:17:22;87285.25;;;14.36;100.00
43838;BME280;65998;46.256;7.534;2023-07-13T05:19:48;87283.94;;;14.33;100.00
43838;BME280;65998;46.256;7.534;2023-07-13T05:22:14;87282.06;;;14.22;100.00
43838;BME280;65998;46.256;7.534;2023-07-13T05:24:40;87286.00;;;14.33;100.00
43838;BME280;65998;46.256;7.534;2023-07-13T05:27:06;87289.25;;;14.46;100.00
43838;BME280;65998;46.256;7.534;2023-07-13T05:29:32;87293.47;;;14.43;100.00
43838;BME280;65998;46.256;7.534;2023-07-13T05:31:58;87291.28;;;14.47;100.00
43838;BME280;65998;46.256;7.534;2023-07-13T05:34:24;87292.53;;;14.54;100.00
43838;BME280;65998;46.256;7.534;2023-07-13T05:36:50;87291.22;;;14.51;100.00
43838;BME280;65998;46.256;7.534;2023-07-13T05:39:16;87293.22;;;14.55;100.00
43838;BME280;65998;46.256;7.534;2023-07-13T05:41:42;87294.53;;;14.60;100.00
43838;BME280;65998;46.256;7.534;2023-07-13T05:44:08;87297.94;;;14.62;100.00
43838;BME280;65998;46.256;7.534;2023-07-13T05:46:34;87297.19;;;14.66;100.00
43838;BME280;65998;46.256;7.534;2023-07-13T05:49:01;87297.66;;;14.77;100.00
43838;BME280;65998;46.256;7.534;2023-07-13T05:51:27;87296.22;;;14.80;100.00
43838;BME280;65998;46.256;7.534;2023-07-13T05:53:53;87297.00;;;14.74;100.00
43838;BME280;65998;46.256;7.534;2023-07-13T05:56:19;87301.25;;;14.69;100.00
43838;BME280;65998;46.256;7.534;2023-07-13T05:58:45;87300.53;;;14.71;100.00
43838;BME280;65998;46.256;7.534;2023-07-13T06:01:13;87312.69;;;14.86;100.00
43838;BME280;65998;46.256;7.534;2023-07-13T06:03:39;87304.06;;;15.02;100.00
43838;BME280;65998;46.256;7.534;2023-07-13T06:06:07;87303.28;;;15.06;100.00
43838;BME280;65998;46.256;7.534;2023-07-13T06:08:33;87314.31;;;15.08;100.00
43838;BME280;65998;46.256;7.534;2023-07-13T06:11:12;87310.78;;;15.11;100.00
43838;BME280;65998;46.256;7.534;2023-07-13T06:13:38;87308.19;;;15.03;100.00
43838;BME280;65998;46.256;7.534;2023-07-13T06:16:05;87307.91;;;14.82;100.00
43838;BME280;65998;46.256;7.534;2023-07-13T06:18:33;87315.50;;;14.84;100.00
43838;BME280;65998;46.256;7.534;2023-07-13T06:20:59;87314.78;;;14.85;100.00
43838;BME280;65998;46.256;7.534;2023-07-13T06:23:25;87318.91;;;14.86;100.00
43838;BME280;65998;46.256;7.534;2023-07-13T06:25:52;87322.28;;;14.91;100.00
43838;BME280;65998;46.256;7.534;2023-07-13T06:28:18;87313.88;;;14.95;100.00
43838;BME280;65998;46.256;7.534;2023-07-13T06:30:45;87318.56;;;15.02;100.00
43838;BME280;65998;46.256;7.534;2023-07-13T06:33:11;87317.28;;;14.97;100.00
43838;BME280;65998;46.256;7.534;2023-07-13T06:35:37;87319.94;;;15.04;100.00
43838;BME280;65998;46.256;7.534;2023-07-13T06:38:03;87322.69;;;15.04;100.00
43838;BME280;65998;46.256;7.534;2023-07-13T06:40:29;87322.56;;;15.10;100.00
43838;BME280;65998;46.256;7.534;2023-07-13T06:42:55;87327.38;;;15.11;100.00
43838;BME280;65998;46.256;7.534;2023-07-13T06:45:21;87329.75;;;14.96;100.00
43838;BME280;65998;46.256;7.534;2023-07-13T06:47:47;87334.75;;;14.90;100.00
43838;BME280;65998;46.256;7.534;2023-07-13T06:50:13;87342.53;;;14.81;100.00
43838;BME280;65998;46.256;7.534;2023-07-13T06:52:39;87341.91;;;14.77;100.00
43838;BME280;65998;46.256;7.534;2023-07-13T06:55:06;87346.69;;;14.80;100.00
43838;BME280;65998;46.256;7.534;2023-07-13T06:57:32;87341.75;;;14.85;100.00
43838;BME280;65998;46.256;7.534;2023-07-13T06:59:58;87339.50;;;14.93;100.00
43838;BME280;65998;46.256;7.534;2023-07-13T07:02:24;87346.66;;;14.82;100.00
43838;BME280;65998;46.256;7.534;2023-07-13T07:04:50;87341.72;;;14.87;100.00
43838;BME280;65998;46.256;7.534;2023-07-13T07:07:15;87341.72;;;14.87;100.00
43838;BME280;65998;46.256;7.534;2023-07-13T07:09:42;87342.97;;;14.94;100.00
43838;BME280;65998;46.256;7.534;2023-07-13T07:12:08;87332.72;;;14.86;100.00
43838;BME280;65998;46.256;7.534;2023-07-13T07:14:34;87342.28;;;14.93;100.00
43838;BME280;65998;46.256;7.534;2023-07-13T07:17:00;87342.88;;;14.98;100.00
43838;BME280;65998;46.256;7.534;2023-07-13T07:19:30;87343.31;;;15.11;100.00
43838;BME280;65998;46.256;7.534;2023-07-13T07:21:56;87343.34;;;15.09;100.00
43838;BME280;65998;46.256;7.534;2023-07-13T07:24:22;87341.19;;;15.13;100.00
43838;BME280;65998;46.256;7.534;2023-07-13T07:26:47;87337.78;;;15.11;100.00
43838;BME280;65998;46.256;7.534;2023-07-13T07:29:15;87340.28;;;15.23;100.00
43838;BME280;65998;46.256;7.534;2023-07-13T07:31:41;87340.84;;;15.29;100.00
43838;BME280;65998;46.256;7.534;2023-07-13T07:34:07;87336.53;;;15.37;100.00
43838;BME280;65998;46.256;7.534;2023-07-13T07:36:34;87334.94;;;15.46;100.00
43838;BME280;65998;46.256;7.534;2023-07-13T07:39:00;87336.13;;;15.55;100.00
43838;BME280;65998;46.256;7.534;2023-07-13T07:41:26;87335.31;;;15.62;100.00
43838;BME280;65998;46.256;7.534;2023-07-13T07:43:52;87340.91;;;15.60;100.00
43838;BME280;65998;46.256;7.534;2023-07-13T07:46:18;87344.03;;;15.42;100.00
43838;BME280;65998;46.256;7.534;2023-07-13T07:48:44;87346.75;;;15.44;100.00
43838;BME280;65998;46.256;7.534;2023-07-13T07:51:10;87345.34;;;15.45;100.00
43838;BME280;65998;46.256;7.534;2023-07-13T07:53:36;87343.13;;;15.52;100.00
43838;BME280;65998;46.256;7.534;2023-07-13T07:56:02;87348.25;;;15.39;100.00
43838;BME280;65998;46.256;7.534;2023-07-13T07:58:29;87346.28;;;15.33;100.00
43838;BME280;65998;46.256;7.534;2023-07-13T08:01:03;87342.75;;;15.37;100.00
43838;BME280;65998;46.256;7.534;2023-07-13T08:03:32;87344.97;;;15.30;100.00
43838;BME280;65998;46.256;7.534;2023-07-13T08:05:58;87345.44;;;15.41;100.00
43838;BME280;65998;46.256;7.534;2023-07-13T08:08:25;87350.78;;;15.49;100.00
43838;BME280;65998;46.256;7.534;2023-07-13T08:10:55;87337.00;;;15.47;100.00
43838;BME280;65998;46.256;7.534;2023-07-13T08:13:21;87339.03;;;15.49;100.00
43838;BME280;65998;46.256;7.534;2023-07-13T08:15:47;87345.97;;;15.48;100.00
43838;BME280;65998;46.256;7.534;2023-07-13T08:18:13;87343.47;;;15.36;100.00
43838;BME280;65998;46.256;7.534;2023-07-13T08:20:39;87345.53;;;15.37;100.00
43838;BME280;65998;46.256;7.534;2023-07-13T08:23:09;87345.81;;;15.56;100.00
43838;BME280;65998;46.256;7.534;2023-07-13T08:25:35;87348.66;;;15.52;100.00
43838;BME280;65998;46.256;7.534;2023-07-13T08:28:03;87348.22;;;15.41;100.00
43838;BME280;65998;46.256;7.534;2023-07-13T08:30:29;87344.97;;;15.30;100.00
43838;BME280;65998;46.256;7.534;2023-07-13T08:32:55;87347.91;;;15.22;100.00
43838;BME280;65998;46.256;7.534;2023-07-13T08:35:21;87354.97;;;15.15;100.00
43838;BME280;65998;46.256;7.534;2023-07-13T08:37:47;87360.09;;;15.36;100.00
43838;BME280;65998;46.256;7.534;2023-07-13T08:40:13;87352.63;;;15.28;100.00
43838;BME280;65998;46.256;7.534;2023-07-13T08:42:45;87354.25;;;15.17;100.00
43838;BME280;65998;46.256;7.534;2023-07-13T08:45:34;87358.84;;;15.28;100.00
43838;BME280;65998;46.256;7.534;2023-07-13T08:48:09;87364.81;;;15.41;100.00
43838;BME280;65998;46.256;7.534;2023-07-13T08:51:00;87368.22;;;15.44;100.00
43838;BME280;65998;46.256;7.534;2023-07-13T08:53:38;87354.88;;;15.52;100.00
43838;BME280;65998;46.256;7.534;2023-07-13T08:56:11;87351.88;;;15.95;100.00
43838;BME280;65998;46.256;7.534;2023-07-13T08:58:39;87353.34;;;16.21;100.00
43838;BME280;65998;46.256;7.534;2023-07-13T09:01:28;87356.81;;;16.49;100.00
43838;BME280;65998;46.256;7.534;2023-07-13T09:04:20;87348.75;;;16.68;100.00
43838;BME280;65998;46.256;7.534;2023-07-13T09:09:59;87355.47;;;16.77;100.00
43838;BME280;65998;46.256;7.534;2023-07-13T09:15:30;87360.38;;;16.45;100.00
43838;BME280;65998;46.256;7.534;2023-07-13T09:18:21;87365.63;;;16.57;100.00
43838;BME280;65998;46.256;7.534;2023-07-13T09:21:14;87360.59;;;16.93;100.00
43838;BME280;65998;46.256;7.534;2023-07-13T09:23:39;87356.69;;;17.09;100.00
43838;BME280;65998;46.256;7.534;2023-07-13T09:26:17;87361.16;;;17.22;100.00
43838;BME280;65998;46.256;7.534;2023-07-13T09:28:45;87359.97;;;17.40;100.00
43838;BME280;65998;46.256;7.534;2023-07-13T09:31:30;87356.75;;;17.07;100.00
43838;BME280;65998;46.256;7.534;2023-07-13T09:33:59;87351.53;;;17.19;100.00
43838;BME280;65998;46.256;7.534;2023-07-13T09:36:29;87348.25;;;17.13;100.00
43838;BME280;65998;46.256;7.534;2023-07-13T09:39:09;87356.53;;;17.15;100.00
43838;BME280;65998;46.256;7.534;2023-07-13T09:44:30;87364.94;;;17.61;100.00
43838;BME280;65998;46.256;7.534;2023-07-13T09:46:57;87359.28;;;17.65;100.00
43838;BME280;65998;46.256;7.534;2023-07-13T09:49:29;87360.53;;;17.45;100.00
43838;BME280;65998;46.256;7.534;2023-07-13T09:52:01;87354.28;;;16.95;100.00
43838;BME280;65998;46.256;7.534;2023-07-13T09:54:29;87362.38;;;16.78;100.00
43838;BME280;65998;46.256;7.534;2023-07-13T09:56:56;87368.56;;;16.80;100.00
43838;BME280;65998;46.256;7.534;2023-07-13T09:59:29;87365.25;;;17.01;100.00
43838;BME280;65998;46.256;7.534;2023-07-13T10:01:56;87361.91;;;17.21;100.00
43838;BME280;65998;46.256;7.534;2023-07-13T10:04:35;87364.00;;;17.45;100.00
43838;BME280;65998;46.256;7.534;2023-07-13T10:07:06;87363.72;;;17.80;100.00
43838;BME280;65998;46.256;7.534;2023-07-13T10:09:33;87362.72;;;17.65;100.00
43838;BME280;65998;46.256;7.534;2023-07-13T10:11:59;87365.69;;;17.59;100.00
43838;BME280;65998;46.256;7.534;2023-07-13T10:14:25;87367.06;;;17.85;100.00
43838;BME280;65998;46.256;7.534;2023-07-13T10:17:01;87360.06;;;17.86;100.00
43838;BME280;65998;46.256;7.534;2023-07-13T10:19:31;87367.56;;;17.92;100.00
43838;BME280;65998;46.256;7.534;2023-07-13T10:24:47;87359.28;;;18.12;100.00
43838;BME280;65998;46.256;7.534;2023-07-13T10:27:23;87351.47;;;18.17;100.00
43838;BME280;65998;46.256;7.534;2023-07-13T10:30:17;87349.22;;;18.44;100.00
43838;BME280;65998;46.256;7.534;2023-07-13T10:32:44;87341.44;;;18.70;100.00
43838;BME280;65998;46.256;7.534;2023-07-13T10:35:12;87346.28;;;18.48;100.00
43838;BME280;65998;46.256;7.534;2023-07-13T10:38:11;87350.53;;;18.68;100.00
43838;BME280;65998;46.256;7.534;2023-07-13T10:40:40;87350.06;;;18.62;100.00
43838;BME280;65998;46.256;7.534;2023-07-13T10:43:16;87349.91;;;18.45;100.00
43838;BME280;65998;46.256;7.534;2023-07-13T10:45:46;87352.00;;;18.44;100.00
43838;BME280;65998;46.256;7.534;2023-07-13T10:48:14;87344.31;;;18.24;100.00
43838;BME280;65998;46.256;7.534;2023-07-13T10:50:44;87345.13;;;18.41;100.00
43838;BME280;65998;46.256;7.534;2023-07-13T10:53:29;87340.16;;;18.67;100.00
43838;BME280;65998;46.256;7.534;2023-07-13T10:58:40;87346.91;;;18.74;100.00
43838;BME280;65998;46.256;7.534;2023-07-13T11:01:11;87347.44;;;18.99;100.00
43838;BME280;65998;46.256;7.534;2023-07-13T11:03:46;87354.16;;;19.06;100.00
43838;BME280;65998;46.256;7.534;2023-07-13T11:08:56;87336.34;;;19.18;100.00
43838;BME280;65998;46.256;7.534;2023-07-13T11:21:32;87337.41;;;19.27;100.00
43838;BME280;65998;46.256;7.534;2023-07-13T11:24:17;87330.25;;;18.93;100.00
43838;BME280;65998;46.256;7.534;2023-07-13T11:31:42;87337.81;;;19.36;100.00
43838;BME280;65998;46.256;7.534;2023-07-13T11:34:14;87331.47;;;19.37;100.00
43838;BME280;65998;46.256;7.534;2023-07-13T11:36:44;87323.56;;;19.44;100.00
43838;BME280;65998;46.256;7.534;2023-07-13T11:39:44;87327.19;;;19.40;100.00
43838;BME280;65998;46.256;7.534;2023-07-13T11:42:12;87326.72;;;19.34;100.00
43838;BME280;65998;46.256;7.534;2023-07-13T11:44:45;87324.72;;;19.51;100.00
43838;BME280;65998;46.256;7.534;2023-07-13T11:47:17;87327.69;;;19.66;100.00
43838;BME280;65998;46.256;7.534;2023-07-13T11:49:45;87315.31;;;19.61;100.00
43838;BME280;65998;46.256;7.534;2023-07-13T11:52:17;87306.66;;;19.69;100.00
43838;BME280;65998;46.256;7.534;2023-07-13T11:54:57;87310.78;;;19.70;100.00
43838;BME280;65998;46.256;7.534;2023-07-13T11:57:33;87314.78;;;19.56;100.00
43838;BME280;65998;46.256;7.534;2023-07-13T12:00:11;87316.28;;;19.53;100.00
43838;BME280;65998;46.256;7.534;2023-07-13T12:02:43;87315.63;;;19.71;100.00
43838;BME280;65998;46.256;7.534;2023-07-13T12:05:14;87317.06;;;19.89;100.00
43838;BME280;65998;46.256;7.534;2023-07-13T12:07:41;87315.63;;;19.71;100.00
43838;BME280;65998;46.256;7.534;2023-07-13T12:13:01;87307.88;;;19.93;100.00
43838;BME280;65998;46.256;7.534;2023-07-13T12:15:41;87307.31;;;20.07;100.00
43838;BME280;65998;46.256;7.534;2023-07-13T12:18:19;87307.63;;;19.99;100.00
43838;BME280;65998;46.256;7.534;2023-07-13T12:20:46;87299.94;;;19.99;100.00
43838;BME280;65998;46.256;7.534;2023-07-13T12:25:50;87307.16;;;20.11;100.00
43838;BME280;65998;46.256;7.534;2023-07-13T12:28:21;87312.19;;;20.25;100.00
43838;BME280;65998;46.256;7.534;2023-07-13T12:30:49;87308.63;;;20.27;100.00
43838;BME280;65998;46.256;7.534;2023-07-13T12:33:16;87305.09;;;20.28;100.00
43838;BME280;65998;46.256;7.534;2023-07-13T12:35:50;87299.03;;;20.40;100.00
43838;BME280;65998;46.256;7.534;2023-07-13T12:38:17;87289.41;;;20.19;100.00
43838;BME280;65998;46.256;7.534;2023-07-13T12:40:44;87296.56;;;20.32;100.00
43838;BME280;65998;46.256;7.534;2023-07-13T12:43:11;87294.16;;;20.22;100.00
43838;BME280;65998;46.256;7.534;2023-07-13T12:45:38;87296.03;;;20.28;100.00
43838;BME280;65998;46.256;7.534;2023-07-13T12:48:10;87293.31;;;20.26;100.00
43838;BME280;65998;46.256;7.534;2023-07-13T12:50:45;87291.22;;;20.26;100.00
43838;BME280;65998;46.256;7.534;2023-07-13T12:53:14;87288.00;;;20.20;100.00
43838;BME280;65998;46.256;7.534;2023-07-13T12:55:42;87288.91;;;20.14;100.00
43838;BME280;65998;46.256;7.534;2023-07-13T12:58:25;87285.00;;;20.43;100.00
43838;BME280;65998;46.256;7.534;2023-07-13T13:00:54;87282.97;;;20.41;100.00
43838;BME280;65998;46.256;7.534;2023-07-13T13:05:49;87289.41;;;20.54;100.00
43838;BME280;65998;46.256;7.534;2023-07-13T13:08:22;87284.41;;;20.40;100.00
43838;BME280;65998;46.256;7.534;2023-07-13T13:10:47;87282.00;;;20.30;100.00
43838;BME280;65998;46.256;7.534;2023-07-13T13:13:14;87284.28;;;20.25;100.00
43838;BME280;65998;46.256;7.534;2023-07-13T13:15:39;87281.06;;;20.35;100.00
43838;BME280;65998;46.256;7.534;2023-07-13T13:18:15;87277.91;;;20.46;100.00
43838;BME280;65998;46.256;7.534;2023-07-13T13:20:41;87276.47;;;20.47;100.00
43838;BME280;65998;46.256;7.534;2023-07-13T13:23:13;87278.41;;;20.50;100.00
43838;BME280;65998;46.256;7.534;2023-07-13T13:25:39;87274.63;;;20.58;100.00
43838;BME280;65998;46.256;7.534;2023-07-13T13:28:12;87273.00;;;20.63;100.00
43838;BME280;65998;46.256;7.534;2023-07-13T13:30:38;87277.81;;;20.48;100.00
43838;BME280;65998;46.256;7.534;2023-07-13T13:33:08;87285.69;;;20.60;100.00
43838;BME280;65998;46.256;7.534;2023-07-13T13:35:34;87288.16;;;20.68;100.00
43838;BME280;65998;46.256;7.534;2023-07-13T13:38:00;87283.25;;;20.68;100.00